createdAt,value
2022-11-23T00:01:34.922Z,100.00
2022-11-23T00:04:24.856Z,100.00
2022-11-23T00:07:13.687Z,100.00
2022-11-23T00:10:02.178Z,100.00
2022-11-23T00:12:51.971Z,100.00
2022-11-23T00:15:41.651Z,100.00
2022-11-23T00:18:30.073Z,100.00
2022-11-23T00:21:20.326Z,100.00
2022-11-23T00:24:11.178Z,100.00
2022-11-23T00:26:59.585Z,100.00
2022-11-23T00:29:49.375Z,100.00
2022-11-23T00:32:37.834Z,100.00
2022-11-23T00:35:26.310Z,100.00
2022-11-23T00:38:14.751Z,100.00
2022-11-23T00:41:04.740Z,100.00
2022-11-23T00:43:53.411Z,100.00
2022-11-23T00:46:43.233Z,100.00
2022-11-23T00:49:32.021Z,100.00
2022-11-23T00:52:20.606Z,100.00
2022-11-23T00:55:09.491Z,100.00
2022-11-23T00:57:59.347Z,100.00
2022-11-23T01:00:48.077Z,100.00
2022-11-23T01:03:39.305Z,100.00
2022-11-23T01:06:29.493Z,100.00
2022-11-23T01:09:20.304Z,100.00
2022-11-23T01:12:08.774Z,100.00
2022-11-23T01:14:57.223Z,100.00
2022-11-23T01:17:45.675Z,100.00
2022-11-23T01:20:35.803Z,100.00
2022-11-23T01:23:24.319Z,100.00
2022-11-23T01:26:13.270Z,100.00
2022-11-23T01:29:01.713Z,100.00
2022-11-23T01:31:50.205Z,100.00
2022-11-23T01:34:38.740Z,100.00
2022-11-23T01:37:28.496Z,100.00
2022-11-23T01:40:17.500Z,100.00
2022-11-23T01:43:08.358Z,100.00
2022-11-23T01:45:58.539Z,100.00
2022-11-23T01:48:48.691Z,100.00
2022-11-23T01:51:39.457Z,100.00
2022-11-23T01:54:32.254Z,100.00
2022-11-23T01:57:23.951Z,100.00
2022-11-23T02:00:13.848Z,100.00
2022-11-23T02:03:03.282Z,100.00
2022-11-23T02:05:59.206Z,100.00
2022-11-23T02:08:48.499Z,100.00
2022-11-23T02:11:38.407Z,100.00
2022-11-23T02:14:27.080Z,100.00
2022-11-23T02:17:16.050Z,100.00
2022-11-23T02:20:09.036Z,100.00
2022-11-23T02:23:09.577Z,100.00
2022-11-23T02:26:02.577Z,100.00
2022-11-23T02:28:54.127Z,100.00
2022-11-23T02:31:42.546Z,100.00
2022-11-23T02:34:31.011Z,100.00
2022-11-23T02:37:19.712Z,100.00
2022-11-23T02:40:24.847Z,100.00
2022-11-23T02:43:15.087Z,100.00
2022-11-23T02:46:05.788Z,100.00
2022-11-23T02:48:54.218Z,100.00
2022-11-23T02:51:42.694Z,100.00
2022-11-23T02:54:31.173Z,100.00
2022-11-23T02:57:19.629Z,100.00
2022-11-23T03:00:11.183Z,100.00
2022-11-23T03:03:00.187Z,100.00
2022-11-23T03:05:48.675Z,100.00
2022-11-23T03:08:37.175Z,100.00
2022-11-23T03:11:25.762Z,100.00
2022-11-23T03:14:14.207Z,100.00
2022-11-23T03:17:04.165Z,100.00
2022-11-23T03:19:52.638Z,100.00
2022-11-23T03:22:41.064Z,100.00
2022-11-23T03:25:29.451Z,100.00
2022-11-23T03:28:17.873Z,100.00
2022-11-23T03:31:06.548Z,100.00
2022-11-23T03:33:56.305Z,100.00
2022-11-23T03:36:44.801Z,100.00
2022-11-23T03:39:34.027Z,100.00
2022-11-23T03:42:22.731Z,100.00
2022-11-23T03:45:11.386Z,100.00
2022-11-23T03:47:59.893Z,100.00
2022-11-23T03:50:49.683Z,100.00
2022-11-23T03:53:38.149Z,100.00
2022-11-23T03:56:26.583Z,100.00
2022-11-23T03:59:15.014Z,100.00
2022-11-23T04:02:03.480Z,100.00
2022-11-23T04:04:52.000Z,100.00
2022-11-23T04:07:41.806Z,100.00
2022-11-23T04:10:30.320Z,100.00
2022-11-23T04:13:19.150Z,100.00
2022-11-23T04:16:08.272Z,100.00
2022-11-23T04:18:56.710Z,100.00
2022-11-23T04:21:45.123Z,100.00
2022-11-23T04:24:34.940Z,100.00
2022-11-23T04:27:23.372Z,100.00
2022-11-23T04:30:12.781Z,100.00
2022-11-23T04:33:01.181Z,100.00
2022-11-23T04:35:49.650Z,100.00
2022-11-23T04:38:38.127Z,100.00
2022-11-23T04:41:27.959Z,100.00
2022-11-23T04:44:16.400Z,100.00
2022-11-23T04:47:05.089Z,100.00
2022-11-23T04:49:53.526Z,100.00
2022-11-23T04:52:41.956Z,100.00
2022-11-23T04:55:30.389Z,100.00
2022-11-23T04:58:20.257Z,100.00
2022-11-23T05:01:08.950Z,100.00
2022-11-23T05:03:57.474Z,100.00
2022-11-23T05:06:46.226Z,100.00
2022-11-23T05:09:35.935Z,100.00
2022-11-23T05:12:24.409Z,100.00
2022-11-23T05:15:14.582Z,100.00
2022-11-23T05:18:03.485Z,100.00
2022-11-23T05:20:51.935Z,100.00
2022-11-23T05:23:40.362Z,100.00
2022-11-23T05:26:28.805Z,100.00
2022-11-23T05:29:17.240Z,100.00
2022-11-23T05:32:07.692Z,100.00
2022-11-23T05:34:56.205Z,100.00
2022-11-23T05:37:44.689Z,100.00
2022-11-23T05:40:33.401Z,100.00
2022-11-23T05:43:21.886Z,100.00
2022-11-23T05:46:10.324Z,100.00
2022-11-23T05:49:00.097Z,100.00
2022-11-23T05:51:48.565Z,100.00
2022-11-23T05:54:37.112Z,100.00
2022-11-23T05:57:25.612Z,100.00
2022-11-23T06:00:15.682Z,100.00
2022-11-23T06:03:04.406Z,100.00
2022-11-23T06:05:54.277Z,100.00
2022-11-23T06:08:46.630Z,100.00
2022-11-23T06:11:37.413Z,100.00
2022-11-23T06:14:25.880Z,100.00
2022-11-23T06:17:14.308Z,100.00
2022-11-23T06:20:02.803Z,100.00
2022-11-23T06:22:54.488Z,100.00
2022-11-23T06:25:42.973Z,100.00
2022-11-23T06:28:31.399Z,100.00
2022-11-23T06:31:19.860Z,100.00
2022-11-23T06:34:08.467Z,100.00
2022-11-23T06:36:57.006Z,100.00
2022-11-23T06:39:46.834Z,100.00
2022-11-23T06:42:40.023Z,100.00
2022-11-23T06:45:28.844Z,100.00
2022-11-23T06:48:17.301Z,100.00
2022-11-23T06:51:05.918Z,100.00
2022-11-23T06:53:54.419Z,100.00
2022-11-23T06:56:44.339Z,100.00
2022-11-23T06:59:32.959Z,100.00
2022-11-23T07:02:21.651Z,100.00
2022-11-23T07:05:10.700Z,100.00
2022-11-23T07:07:59.163Z,100.00
2022-11-23T07:10:47.898Z,100.00
2022-11-23T07:13:37.708Z,100.00
2022-11-23T07:16:26.157Z,100.00
2022-11-23T07:19:14.621Z,100.00
2022-11-23T07:22:03.043Z,100.00
2022-11-23T07:24:51.465Z,100.00
2022-11-23T07:27:39.926Z,100.00
2022-11-23T07:30:31.129Z,100.00
2022-11-23T07:33:19.704Z,100.00
2022-11-23T07:36:09.126Z,100.00
2022-11-23T07:38:57.621Z,100.00
2022-11-23T07:41:46.623Z,100.00
2022-11-23T07:44:35.158Z,100.00
2022-11-23T07:47:24.992Z,100.00
2022-11-23T07:50:14.226Z,98.92
2022-11-23T07:53:03.459Z,96.32
2022-11-23T07:55:56.661Z,94.20
2022-11-23T07:58:45.172Z,94.81
2022-11-23T08:01:33.700Z,94.14
2022-11-23T08:04:23.950Z,93.04
2022-11-23T08:07:12.625Z,91.51
2022-11-23T08:10:01.162Z,89.66
2022-11-23T08:12:50.028Z,88.24
2022-11-23T08:15:38.634Z,87.96
2022-11-23T08:18:27.221Z,87.64
2022-11-23T08:21:17.051Z,84.76
2022-11-23T08:24:05.910Z,82.77
2022-11-23T08:26:54.460Z,81.26
2022-11-23T08:29:42.953Z,80.47
2022-11-23T08:32:31.505Z,79.82
2022-11-23T08:35:20.008Z,77.67
2022-11-23T08:38:10.669Z,75.86
2022-11-23T08:41:00.002Z,74.77
2022-11-23T08:43:48.563Z,73.88
2022-11-23T08:46:37.037Z,74.77
2022-11-23T08:49:25.471Z,74.58
2022-11-23T08:52:14.009Z,74.70
2022-11-23T08:55:03.970Z,75.73
2022-11-23T08:57:55.955Z,75.09
2022-11-23T09:00:44.400Z,73.82
2022-11-23T09:03:32.946Z,72.96
2022-11-23T09:06:27.007Z,74.34
2022-11-23T09:09:15.566Z,73.63
2022-11-23T09:12:06.156Z,73.01
2022-11-23T09:14:54.689Z,73.28
2022-11-23T09:17:43.316Z,70.86
2022-11-23T09:20:33.259Z,71.08
2022-11-23T09:23:21.983Z,70.46
2022-11-23T09:26:10.578Z,69.93
2022-11-23T09:29:00.549Z,69.97
2022-11-23T09:31:49.025Z,69.26
2022-11-23T09:34:37.729Z,69.18
2022-11-23T09:37:26.239Z,68.85
2022-11-23T09:40:17.040Z,67.85
2022-11-23T09:43:18.638Z,67.64
2022-11-23T09:46:14.567Z,67.32
2022-11-23T09:49:14.809Z,66.56
2022-11-23T09:52:03.430Z,65.14
2022-11-23T09:54:54.666Z,64.42
2022-11-23T09:57:44.568Z,64.65
2022-11-23T10:00:38.383Z,64.55
2022-11-23T10:03:29.145Z,64.13
2022-11-23T10:06:24.022Z,63.48
2022-11-23T10:09:20.668Z,64.04
2022-11-23T10:12:19.043Z,63.31
2022-11-23T10:15:14.075Z,63.79
2022-11-23T10:18:09.613Z,63.79
2022-11-23T10:21:05.343Z,63.20
2022-11-23T10:23:55.473Z,63.32
2022-11-23T10:26:45.298Z,63.44
2022-11-23T10:29:36.181Z,63.03
2022-11-23T10:32:29.659Z,63.06
2022-11-23T10:35:19.822Z,62.76
2022-11-23T10:38:18.852Z,63.50
2022-11-23T10:41:10.788Z,61.85
2022-11-23T10:44:05.522Z,60.11
2022-11-23T10:46:54.201Z,59.31
2022-11-23T10:49:57.763Z,58.00
2022-11-23T10:52:51.346Z,58.73
2022-11-23T10:55:50.730Z,58.58
2022-11-23T10:58:44.227Z,58.48
2022-11-23T11:01:32.783Z,58.96
2022-11-23T11:04:25.399Z,60.08
2022-11-23T11:07:23.865Z,60.19
2022-11-23T11:10:37.543Z,58.02
2022-11-23T11:13:30.590Z,57.88
2022-11-23T11:16:21.770Z,57.99
2022-11-23T11:19:23.758Z,57.27
2022-11-23T11:22:28.265Z,56.34
2022-11-23T11:25:29.719Z,55.55
2022-11-23T11:28:23.784Z,54.88
2022-11-23T11:31:44.065Z,55.99
2022-11-23T11:34:36.502Z,55.14
2022-11-23T11:37:33.346Z,55.14
2022-11-23T11:40:25.295Z,54.83
2022-11-23T11:43:18.664Z,55.43
2022-11-23T11:46:28.462Z,55.39
2022-11-23T11:49:21.950Z,54.22
2022-11-23T11:52:13.089Z,54.53
2022-11-23T11:55:06.595Z,55.15
2022-11-23T11:57:57.389Z,54.63
2022-11-23T12:00:47.647Z,54.38
2022-11-23T12:03:42.826Z,53.17
2022-11-23T12:06:34.576Z,54.01
2022-11-23T12:09:26.788Z,51.33
2022-11-23T12:12:17.740Z,50.77
2022-11-23T12:15:26.283Z,50.83
2022-11-23T12:18:42.250Z,50.14
2022-11-23T12:21:54.522Z,50.02
2022-11-23T12:24:57.795Z,49.64
2022-11-23T12:27:53.674Z,50.91
2022-11-23T12:30:48.229Z,50.63
2022-11-23T12:34:01.273Z,49.63
2022-11-23T12:37:03.481Z,51.14
2022-11-23T12:40:20.005Z,51.76
2022-11-23T12:43:14.122Z,51.05
2022-11-23T12:46:13.104Z,51.33
2022-11-23T12:49:11.331Z,50.97
2022-11-23T12:52:06.142Z,51.82
2022-11-23T12:54:58.496Z,51.41
2022-11-23T12:57:50.606Z,51.01
2022-11-23T13:00:40.942Z,52.72
2022-11-23T13:04:00.987Z,52.73
2022-11-23T13:07:30.299Z,51.62
2022-11-23T13:10:37.307Z,51.49
2022-11-23T13:13:48.761Z,53.37
2022-11-23T13:16:57.812Z,52.85
2022-11-23T13:20:16.674Z,53.63
2022-11-23T13:23:06.919Z,53.45
2022-11-23T13:26:13.788Z,53.81
2022-11-23T13:29:37.102Z,54.74
2022-11-23T13:32:35.850Z,54.64
2022-11-23T13:35:50.389Z,54.24
2022-11-23T13:38:44.645Z,54.77
2022-11-23T13:42:01.522Z,54.46
2022-11-23T13:44:50.006Z,54.36
2022-11-23T13:47:42.530Z,54.86
2022-11-23T13:50:33.004Z,55.86
2022-11-23T13:53:23.941Z,55.67
2022-11-23T13:56:27.167Z,56.14
2022-11-23T13:59:30.095Z,56.54
2022-11-23T14:02:28.171Z,56.42
2022-11-23T14:05:52.160Z,57.32
2022-11-23T14:08:41.591Z,57.27
2022-11-23T14:11:37.921Z,58.06
2022-11-23T14:14:32.143Z,58.00
2022-11-23T14:17:40.098Z,58.61
2022-11-23T14:21:09.463Z,59.07
2022-11-23T14:24:19.696Z,59.12
2022-11-23T14:27:46.150Z,59.71
2022-11-23T14:30:43.040Z,60.41
2022-11-23T14:33:37.073Z,60.90
2022-11-23T14:36:33.191Z,60.77
2022-11-23T14:39:49.538Z,61.87
2022-11-23T14:42:43.613Z,61.18
2022-11-23T14:45:34.921Z,61.50
2022-11-23T14:48:24.361Z,62.69
2022-11-23T14:51:14.324Z,63.04
2022-11-23T14:54:04.192Z,62.18
2022-11-23T14:56:54.094Z,62.61
2022-11-23T14:59:49.020Z,63.43
2022-11-23T15:02:39.738Z,63.69
2022-11-23T15:05:30.137Z,63.86
2022-11-23T15:08:20.968Z,64.47
2022-11-23T15:11:12.478Z,64.37
2022-11-23T15:14:03.791Z,64.79
2022-11-23T15:16:53.853Z,64.93
2022-11-23T15:19:42.769Z,65.07
2022-11-23T15:22:32.753Z,65.28
2022-11-23T15:25:21.568Z,64.94
2022-11-23T15:28:16.514Z,65.36
2022-11-23T15:31:27.461Z,65.31
2022-11-23T15:34:18.189Z,65.28
2022-11-23T15:37:06.802Z,65.86
2022-11-23T15:39:56.520Z,65.30
2022-11-23T15:42:45.678Z,65.29
2022-11-23T15:45:38.494Z,65.79
2022-11-23T15:48:30.646Z,65.79
2022-11-23T15:51:30.203Z,65.33
2022-11-23T15:54:22.161Z,65.27
2022-11-23T15:57:15.891Z,65.47
2022-11-23T16:00:07.541Z,65.60
2022-11-23T16:03:22.577Z,65.44
2022-11-23T16:06:19.523Z,65.46
2022-11-23T16:09:53.964Z,65.23
2022-11-23T16:12:49.645Z,65.27
2022-11-23T16:15:42.031Z,65.08
2022-11-23T16:18:31.921Z,65.43
2022-11-23T16:21:21.187Z,66.23
2022-11-23T16:24:19.127Z,66.56
2022-11-23T16:27:15.612Z,67.29
2022-11-23T16:30:04.881Z,73.58
2022-11-23T16:32:53.595Z,71.68
2022-11-23T16:35:42.222Z,74.99
2022-11-23T16:38:31.123Z,74.63
2022-11-23T16:41:19.868Z,76.37
2022-11-23T16:44:10.370Z,78.52
2022-11-23T16:47:14.500Z,81.14
2022-11-23T16:50:03.999Z,81.59
2022-11-23T16:52:52.710Z,83.01
2022-11-23T16:55:43.739Z,85.87
2022-11-23T16:58:35.445Z,87.84
2022-11-23T17:01:27.150Z,89.17
2022-11-23T17:04:16.973Z,90.90
2022-11-23T17:07:05.819Z,91.39
2022-11-23T17:09:54.357Z,93.78
2022-11-23T17:12:48.545Z,95.64
2022-11-23T17:15:37.783Z,98.61
2022-11-23T17:18:27.733Z,100.00
2022-11-23T17:21:16.279Z,100.00
2022-11-23T17:24:05.233Z,100.00
2022-11-23T17:26:54.238Z,100.00
2022-11-23T17:29:43.228Z,100.00
2022-11-23T17:32:32.823Z,100.00
2022-11-23T17:35:22.697Z,100.00
2022-11-23T17:38:15.000Z,100.00
2022-11-23T17:41:03.440Z,100.00
2022-11-23T17:43:51.974Z,100.00
2022-11-23T17:46:40.566Z,100.00
2022-11-23T17:49:29.194Z,100.00
2022-11-23T17:52:19.056Z,100.00
2022-11-23T17:55:08.865Z,100.00
2022-11-23T17:57:57.365Z,100.00
2022-11-23T18:00:45.894Z,100.00
2022-11-23T18:03:34.467Z,100.00
2022-11-23T18:06:24.146Z,100.00
2022-11-23T18:09:14.031Z,100.00
2022-11-23T18:12:02.726Z,100.00
2022-11-23T18:14:51.216Z,100.00
2022-11-23T18:17:40.187Z,100.00
2022-11-23T18:20:28.834Z,100.00
2022-11-23T18:23:17.453Z,100.00
2022-11-23T18:26:15.611Z,100.00
2022-11-23T18:29:04.646Z,100.00
2022-11-23T18:31:53.272Z,100.00
2022-11-23T18:34:41.782Z,100.00
2022-11-23T18:37:30.312Z,100.00
2022-11-23T18:40:18.972Z,100.00
2022-11-23T18:43:08.875Z,100.00
2022-11-23T18:45:57.460Z,100.00
2022-11-23T18:48:46.452Z,100.00
2022-11-23T18:51:35.060Z,100.00
2022-11-23T18:54:23.646Z,100.00
2022-11-23T18:57:16.428Z,100.00
2022-11-23T19:00:08.061Z,100.00
2022-11-23T19:02:57.682Z,100.00
2022-11-23T19:05:48.925Z,100.00
2022-11-23T19:08:39.892Z,100.00
2022-11-23T19:11:29.382Z,100.00
2022-11-23T19:14:17.880Z,100.00
2022-11-23T19:17:07.779Z,100.00
2022-11-23T19:19:56.301Z,100.00
2022-11-23T19:22:44.762Z,100.00
2022-11-23T19:25:33.778Z,100.00
2022-11-23T19:28:22.373Z,100.00
2022-11-23T19:31:12.229Z,100.00
2022-11-23T19:34:05.839Z,100.00
2022-11-23T19:36:54.541Z,100.00
2022-11-23T19:39:43.145Z,100.00
2022-11-23T19:42:31.878Z,100.00
2022-11-23T19:45:20.509Z,100.00
2022-11-23T19:48:09.045Z,100.00
2022-11-23T19:51:00.211Z,100.00
2022-11-23T19:53:49.367Z,100.00
2022-11-23T19:56:38.580Z,100.00
2022-11-23T19:59:27.698Z,100.00
2022-11-23T20:02:24.181Z,100.00
2022-11-23T20:05:12.920Z,100.00
2022-11-23T20:08:02.911Z,100.00
2022-11-23T20:10:51.615Z,100.00
2022-11-23T20:13:40.484Z,100.00
2022-11-23T20:16:31.229Z,100.00
2022-11-23T20:19:19.922Z,100.00
2022-11-23T20:22:08.785Z,100.00
2022-11-23T20:24:59.993Z,100.00
2022-11-23T20:27:48.486Z,100.00
2022-11-23T20:30:37.096Z,100.00
2022-11-23T20:33:25.667Z,100.00
2022-11-23T20:36:16.530Z,100.00
2022-11-23T20:39:06.862Z,100.00
2022-11-23T20:41:58.568Z,100.00
2022-11-23T20:44:47.159Z,100.00
2022-11-23T20:47:35.780Z,100.00
2022-11-23T20:50:26.973Z,100.00
2022-11-23T20:53:15.474Z,100.00
2022-11-23T20:56:05.164Z,100.00
2022-11-23T20:58:57.124Z,100.00
2022-11-23T21:01:45.642Z,100.00
2022-11-23T21:04:34.446Z,100.00
2022-11-23T21:07:23.419Z,100.00
2022-11-23T21:10:31.931Z,100.00
2022-11-23T21:13:49.189Z,100.00
2022-11-23T21:16:41.075Z,100.00
2022-11-23T21:19:30.718Z,100.00
2022-11-23T21:22:19.313Z,100.00
2022-11-23T21:25:08.505Z,100.00
2022-11-23T21:27:58.114Z,100.00
2022-11-23T21:30:46.638Z,100.00
2022-11-23T21:33:37.315Z,100.00
2022-11-23T21:36:25.786Z,100.00
2022-11-23T21:39:15.792Z,100.00
2022-11-23T21:42:04.393Z,100.00
2022-11-23T21:44:52.918Z,100.00
2022-11-23T21:47:41.408Z,100.00
2022-11-23T21:50:31.236Z,100.00
2022-11-23T21:53:20.106Z,100.00
2022-11-23T21:56:11.648Z,100.00
2022-11-23T21:59:00.420Z,100.00
2022-11-23T22:01:49.116Z,100.00
2022-11-23T22:04:38.198Z,100.00
2022-11-23T22:07:28.115Z,100.00
2022-11-23T22:10:17.214Z,100.00
2022-11-23T22:13:05.702Z,100.00
2022-11-23T22:15:54.338Z,100.00
2022-11-23T22:18:42.957Z,100.00
2022-11-23T22:21:34.328Z,100.00
2022-11-23T22:24:24.150Z,100.00
2022-11-23T22:27:12.709Z,100.00
2022-11-23T22:30:01.192Z,100.00
2022-11-23T22:32:49.644Z,100.00
2022-11-23T22:35:38.193Z,100.00
2022-11-23T22:38:27.832Z,100.00
2022-11-23T22:41:18.706Z,100.00
2022-11-23T22:44:09.274Z,100.00
2022-11-23T22:46:57.838Z,100.00
2022-11-23T22:49:46.770Z,100.00
2022-11-23T22:52:35.215Z,100.00
2022-11-23T22:55:23.740Z,100.00
2022-11-23T22:58:13.589Z,100.00
2022-11-23T23:01:06.484Z,100.00
2022-11-23T23:03:56.147Z,100.00
2022-11-23T23:06:45.032Z,100.00
2022-11-23T23:09:33.488Z,100.00
2022-11-23T23:12:21.931Z,100.00
2022-11-23T23:15:12.228Z,100.00
2022-11-23T23:18:00.648Z,100.00
2022-11-23T23:20:49.114Z,100.00
2022-11-23T23:23:37.897Z,100.00
2022-11-23T23:26:27.632Z,100.00
2022-11-23T23:29:16.137Z,100.00
2022-11-23T23:32:06.682Z,100.00
2022-11-23T23:34:55.222Z,100.00
2022-11-23T23:37:43.645Z,100.00
2022-11-23T23:40:32.133Z,100.00
2022-11-23T23:43:23.908Z,100.00
2022-11-23T23:46:13.636Z,100.00
2022-11-23T23:49:03.861Z,100.00
2022-11-23T23:51:52.331Z,100.00
2022-11-23T23:54:40.772Z,100.00
2022-11-23T23:57:30.439Z,100.00
